Time;durP1;ratioP1;P1;durP2;ratioP2;P2;SDS_P1;SDS_P2;PMS_P1;PMS_P2;Temp;Humidity;BMP_temperature;BMP_pressure;BME280_temperature;BME280_humidity;BME280_pressure;Samples;Min_cycle;Max_cycle;Signal;HPM_P1;HPM_P2
2023/07/09 00:02:05;;;;;;;9.33;6.37;;;23.10;98.90;;;;;;6333944;22;20010;-85
2023/07/09 00:04:33;;;;;;;9.20;6.90;;;23.00;98.90;;;;;;6280324;22;20046;-85
2023/07/09 00:07:04;;;;;;;9.38;6.20;;;23.00;98.90;;;;;;6281518;22;20045;-86
2023/07/09 00:09:30;;;;;;;12.75;7.88;;;23.00;99.00;;;;;;6306140;22;20090;-86
2023/07/09 00:11:59;;;;;;;12.70;7.13;;;22.90;99.20;;;;;;6306258;22;20014;-86
2023/07/09 00:14:25;;;;;;;13.32;7.68;;;22.90;99.50;;;;;;6281203;22;20097;-86
2023/07/09 00:16:55;;;;;;;11.40;7.55;;;22.90;99.40;;;;;;6306025;22;20022;-86
2023/07/09 00:19:24;;;;;;;12.40;7.40;;;22.80;99.60;;;;;;6306481;22;20235;-84
2023/07/09 00:21:53;;;;;;;11.23;7.05;;;22.80;99.60;;;;;;6306258;22;20018;-85
2023/07/09 00:24:19;;;;;;;12.23;7.88;;;22.70;99.90;;;;;;6305570;22;20102;-86
2023/07/09 00:26:48;;;;;;;13.90;7.38;;;22.70;99.80;;;;;;6305735;22;20011;-88
2023/07/09 00:29:14;;;;;;;10.88;7.93;;;22.60;99.80;;;;;;6305320;22;20015;-88
2023/07/09 00:31:43;;;;;;;12.55;7.60;;;22.60;99.90;;;;;;6305357;22;20065;-88
2023/07/09 00:34:13;;;;;;;11.32;6.10;;;22.60;99.90;;;;;;6279684;22;20010;-88
2023/07/09 00:36:40;;;;;;;9.82;7.18;;;22.50;99.90;;;;;;6305620;22;20067;-88
2023/07/09 00:39:20;;;;;;;10.52;6.88;;;22.50;99.90;;;;;;6303471;22;20026;-88
2023/07/09 00:41:49;;;;;;;14.82;8.10;;;22.50;99.90;;;;;;6332624;22;20080;-88
2023/07/09 00:44:34;;;;;;;11.02;7.45;;;22.40;99.90;;;;;;6307064;22;20086;-88
2023/07/09 00:47:03;;;;;;;13.48;8.10;;;22.30;99.90;;;;;;6278958;22;20053;-89
2023/07/09 00:49:46;;;;;;;10.43;7.10;;;22.20;99.90;;;;;;6275607;22;20018;-88
2023/07/09 00:52:39;;;;;;;9.85;7.30;;;22.20;99.90;;;;;;6332526;22;20138;-88
2023/07/09 00:55:10;;;;;;;9.18;7.32;;;22.10;99.90;;;;;;6303740;22;20050;-88
2023/07/09 00:57:41;;;;;;;9.05;7.00;;;22.10;99.90;;;;;;6305330;22;20052;-88
2023/07/09 01:00:13;;;;;;;10.52;7.55;;;22.10;99.90;;;;;;6278725;22;20015;-88
2023/07/09 01:02:44;;;;;;;10.65;7.10;;;22.10;99.90;;;;;;6305368;22;20513;-89
2023/07/09 01:05:13;;;;;;;10.18;7.82;;;22.00;99.90;;;;;;6305786;22;20019;-88
2023/07/09 01:07:39;;;;;;;9.18;6.82;;;22.00;99.90;;;;;;6279101;22;20366;-89
2023/07/09 01:10:06;;;;;;;10.82;8.15;;;22.10;99.90;;;;;;6305242;22;20019;-89
2023/07/09 01:12:32;;;;;;;11.68;8.75;;;22.00;99.90;;;;;;6333367;22;20034;-88
2023/07/09 01:15:00;;;;;;;14.57;9.07;;;21.90;99.90;;;;;;6333362;22;20042;-88
2023/07/09 01:17:29;;;;;;;11.70;8.15;;;21.90;99.90;;;;;;6304248;22;20007;-89
2023/07/09 01:19:56;;;;;;;11.13;7.05;;;21.90;99.90;;;;;;6305220;22;20516;-88
2023/07/09 01:22:23;;;;;;;13.10;7.72;;;21.90;99.90;;;;;;6305950;22;20093;-88
2023/07/09 01:25:05;;;;;;;11.38;7.68;;;21.80;99.90;;;;;;6333643;22;20014;-88
2023/07/09 01:27:38;;;;;;;12.40;7.50;;;21.80;99.90;;;;;;6305735;22;20014;-88
2023/07/09 01:30:11;;;;;;;12.27;7.60;;;21.80;99.90;;;;;;6334513;22;20018;-87
2023/07/09 01:32:38;;;;;;;13.80;9.07;;;21.70;99.90;;;;;;6308172;22;20200;-88
2023/07/09 01:35:06;;;;;;;9.77;7.80;;;21.70;99.90;;;;;;6307036;22;20006;-88
2023/07/09 01:37:35;;;;;;;14.30;8.55;;;21.70;99.90;;;;;;6281713;22;20018;-88
2023/07/09 01:40:01;;;;;;;12.25;7.60;;;21.60;99.90;;;;;;6307065;22;20061;-88
2023/07/09 01:42:28;;;;;;;12.18;7.65;;;21.60;99.90;;;;;;6307571;22;20058;-88
2023/07/09 01:44:55;;;;;;;10.38;7.60;;;21.50;99.90;;;;;;6335591;22;20022;-88
2023/07/09 01:47:23;;;;;;;10.95;8.07;;;21.50;99.90;;;;;;6309008;22;20207;-88
2023/07/09 01:49:50;;;;;;;11.57;8.15;;;21.50;99.90;;;;;;6308972;22;20094;-88
2023/07/09 01:52:19;;;;;;;11.63;8.25;;;21.50;99.90;;;;;;6306208;22;20079;-89
2023/07/09 01:54:49;;;;;;;12.80;8.07;;;21.50;99.90;;;;;;6332266;22;20068;-88
2023/07/09 01:57:22;;;;;;;12.68;8.70;;;21.50;99.90;;;;;;6306124;22;20021;-88
2023/07/09 02:00:08;;;;;;;17.25;8.43;;;21.50;99.90;;;;;;6304663;22;20064;-89
2023/07/09 02:02:35;;;;;;;10.25;8.05;;;21.40;99.90;;;;;;6279546;22;20089;-88
2023/07/09 02:05:02;;;;;;;11.50;7.80;;;21.50;99.90;;;;;;6279133;22;20011;-88
2023/07/09 02:07:28;;;;;;;9.85;7.95;;;21.40;99.90;;;;;;6305723;22;20076;-88
2023/07/09 02:09:54;;;;;;;11.35;7.85;;;21.40;99.90;;;;;;6333092;22;20017;-88
2023/07/09 02:12:20;;;;;;;12.35;7.70;;;21.40;99.90;;;;;;6334490;22;20379;-88
2023/07/09 02:14:46;;;;;;;10.90;7.93;;;21.40;99.90;;;;;;6307551;22;20019;-88
2023/07/09 02:17:15;;;;;;;12.48;8.25;;;21.30;99.90;;;;;;6307771;22;20177;-88
2023/07/09 02:19:41;;;;;;;12.52;7.00;;;21.40;99.90;;;;;;6306885;22;20015;-88
2023/07/09 02:22:07;;;;;;;9.80;7.95;;;21.40;99.90;;;;;;6280430;22;20098;-88
2023/07/09 02:24:36;;;;;;;9.55;6.85;;;21.40;99.90;;;;;;6334628;22;20066;-88
2023/07/09 02:27:05;;;;;;;11.73;7.72;;;21.30;99.90;;;;;;6306556;22;20022;-88
2023/07/09 02:29:32;;;;;;;14.88;7.97;;;21.30;99.90;;;;;;6280624;22;20010;-88
2023/07/09 02:32:03;;;;;;;11.98;8.20;;;21.30;99.90;;;;;;6307288;22;20104;-88
2023/07/09 02:34:30;;;;;;;9.45;7.15;;;21.20;99.90;;;;;;6306728;22;20052;-88
2023/07/09 02:36:57;;;;;;;11.95;8.85;;;21.20;99.90;;;;;;6306545;22;20015;-88
2023/07/09 02:39:24;;;;;;;13.60;8.48;;;21.20;99.90;;;;;;6280183;22;20074;-88
2023/07/09 02:41:50;;;;;;;11.15;8.10;;;21.10;99.90;;;;;;6281032;22;20019;-88
2023/07/09 02:44:19;;;;;;;10.05;7.53;;;21.00;99.90;;;;;;6281248;22;20017;-88
2023/07/09 02:46:46;;;;;;;10.75;8.10;;;21.00;99.90;;;;;;6334589;22;20022;-88
2023/07/09 02:49:13;;;;;;;12.45;8.45;;;21.00;99.90;;;;;;6281879;22;20015;-88
2023/07/09 02:51:40;;;;;;;12.45;8.10;;;20.90;99.90;;;;;;6335487;22;20012;-88
2023/07/09 02:54:08;;;;;;;10.07;7.68;;;20.90;99.90;;;;;;6306931;22;20022;-88
2023/07/09 02:56:34;;;;;;;12.15;7.70;;;20.90;99.90;;;;;;6332926;22;20082;-88
2023/07/09 02:59:00;;;;;;;11.60;8.27;;;20.80;99.90;;;;;;6334813;22;20015;-88
2023/07/09 03:01:26;;;;;;;12.25;7.95;;;20.80;99.90;;;;;;6282385;22;20014;-88
2023/07/09 03:03:54;;;;;;;9.98;7.22;;;20.70;99.90;;;;;;6335413;22;20080;-88
2023/07/09 03:06:22;;;;;;;10.60;7.32;;;20.70;99.90;;;;;;6333567;22;20011;-88
2023/07/09 03:08:48;;;;;;;12.20;8.50;;;20.70;99.90;;;;;;6306749;22;20014;-89
2023/07/09 03:11:21;;;;;;;15.25;9.07;;;20.70;99.90;;;;;;6280578;22;20015;-88
2023/07/09 03:13:47;;;;;;;15.73;8.93;;;20.40;99.90;;;;;;6334909;22;20120;-88
2023/07/09 03:16:15;;;;;;;12.45;8.68;;;20.60;99.90;;;;;;6304211;22;20068;-88
2023/07/09 03:18:40;;;;;;;11.48;7.38;;;20.50;99.90;;;;;;6305410;22;20167;-89
2023/07/09 03:21:06;;;;;;;10.63;8.10;;;20.50;99.90;;;;;;6305512;22;20221;-88
2023/07/09 03:23:33;;;;;;;10.90;8.73;;;20.40;99.90;;;;;;6305664;22;20023;-88
2023/07/09 03:25:59;;;;;;;10.13;7.38;;;20.40;99.90;;;;;;6332646;22;20089;-88
2023/07/09 03:28:26;;;;;;;12.82;8.68;;;20.40;99.90;;;;;;6333753;22;20015;-88
2023/07/09 03:30:55;;;;;;;10.02;7.30;;;20.40;99.90;;;;;;6279293;22;20093;-89
2023/07/09 03:33:21;;;;;;;13.77;8.32;;;20.40;99.90;;;;;;6335323;22;20030;-88
2023/07/09 03:35:50;;;;;;;11.27;8.15;;;20.50;99.90;;;;;;6309435;22;20015;-89
2023/07/09 03:38:15;;;;;;;13.32;9.15;;;20.40;99.90;;;;;;6335481;22;20100;-88
2023/07/09 03:40:41;;;;;;;13.15;8.48;;;20.40;99.90;;;;;;6306627;22;20015;-88
2023/07/09 03:43:09;;;;;;;10.77;7.38;;;20.40;99.90;;;;;;6306908;22;20015;-89
2023/07/09 03:45:36;;;;;;;8.55;6.95;;;20.30;99.90;;;;;;6280922;22;20456;-88
2023/07/09 03:48:03;;;;;;;10.68;7.88;;;20.30;99.90;;;;;;6334044;22;20064;-88
2023/07/09 03:50:29;;;;;;;11.25;7.63;;;20.30;99.90;;;;;;6281633;22;20203;-89
2023/07/09 03:52:55;;;;;;;14.95;8.60;;;20.30;99.90;;;;;;6307399;22;20823;-89
2023/07/09 03:55:21;;;;;;;12.55;7.97;;;20.30;99.90;;;;;;6334000;22;20022;-88
2023/07/09 03:57:47;;;;;;;16.15;9.05;;;20.30;99.90;;;;;;6306175;22;20018;-89
2023/07/09 04:00:16;;;;;;;12.20;9.20;;;20.30;99.90;;;;;;6306590;22;20518;-88
2023/07/09 04:02:44;;;;;;;10.63;7.15;;;20.30;99.90;;;;;;6333106;22;20014;-88
2023/07/09 04:05:10;;;;;;;10.93;8.00;;;20.20;99.90;;;;;;6306256;22;20396;-89
2023/07/09 04:07:36;;;;;;;9.77;7.00;;;20.20;99.90;;;;;;6279015;22;20019;-88
2023/07/09 04:10:03;;;;;;;10.82;8.27;;;20.20;99.90;;;;;;6279729;22;20057;-88
2023/07/09 04:12:29;;;;;;;10.27;7.90;;;20.30;99.90;;;;;;6304440;22;20049;-88
2023/07/09 04:14:55;;;;;;;11.38;7.85;;;20.30;99.90;;;;;;6278934;22;20018;-88
2023/07/09 04:17:22;;;;;;;11.82;8.35;;;20.20;99.90;;;;;;6279002;22;20338;-88
2023/07/09 04:19:49;;;;;;;12.43;7.75;;;20.20;99.90;;;;;;6278414;22;20014;-88
2023/07/09 04:22:15;;;;;;;10.30;8.38;;;20.20;99.90;;;;;;6304940;22;20094;-88
2023/07/09 04:24:40;;;;;;;12.00;7.93;;;20.30;99.90;;;;;;6304289;22;20050;-88
2023/07/09 04:27:06;;;;;;;11.02;8.55;;;20.30;99.90;;;;;;6279722;22;20115;-89
2023/07/09 04:29:38;;;;;;;9.80;7.35;;;20.30;99.90;;;;;;6332296;22;20011;-88
2023/07/09 04:32:08;;;;;;;9.95;7.18;;;20.30;99.90;;;;;;6332886;22;20018;-89
2023/07/09 04:34:33;;;;;;;9.77;7.60;;;20.30;99.90;;;;;;6305786;22;20014;-89
2023/07/09 04:36:59;;;;;;;9.18;6.80;;;20.30;99.90;;;;;;6335159;22;20014;-88
2023/07/09 04:39:25;;;;;;;11.02;7.55;;;20.40;99.90;;;;;;6334473;22;20094;-89
2023/07/09 04:41:52;;;;;;;10.98;6.93;;;20.40;99.90;;;;;;6334309;22;20011;-88
2023/07/09 04:44:18;;;;;;;10.70;8.18;;;20.30;99.90;;;;;;6307053;22;20442;-88
2023/07/09 04:46:44;;;;;;;10.43;7.50;;;20.40;99.90;;;;;;6308068;22;20006;-89
2023/07/09 04:49:12;;;;;;;9.65;7.10;;;20.40;99.90;;;;;;6333811;22;20094;-86
2023/07/09 04:51:38;;;;;;;7.35;5.75;;;20.40;99.90;;;;;;6306281;22;20445;-87
2023/07/09 04:54:03;;;;;;;9.07;6.68;;;20.50;99.90;;;;;;6334579;22;20014;-86
2023/07/09 04:56:30;;;;;;;10.80;7.60;;;20.50;99.90;;;;;;6304574;22;20033;-87
2023/07/09 04:58:56;;;;;;;9.48;7.18;;;20.50;99.90;;;;;;6334201;22;20015;-87
2023/07/09 05:01:24;;;;;;;10.75;7.45;;;20.50;99.90;;;;;;6283616;22;20093;-87
2023/07/09 05:03:50;;;;;;;14.98;8.55;;;20.50;99.90;;;;;;6308021;22;20011;-87
2023/07/09 05:06:27;;;;;;;8.95;7.00;;;20.60;99.90;;;;;;6305670;22;20322;-87
2023/07/09 05:08:53;;;;;;;11.00;7.70;;;20.50;99.90;;;;;;6305847;22;20003;-87
2023/07/09 05:11:19;;;;;;;8.90;6.30;;;20.60;99.90;;;;;;6306142;22;20115;-87
2023/07/09 05:13:44;;;;;;;8.30;6.53;;;20.60;99.90;;;;;;6306042;22;20080;-87
2023/07/09 05:16:10;;;;;;;9.95;7.32;;;20.60;99.90;;;;;;6334037;22;20014;-87
2023/07/09 05:18:37;;;;;;;9.63;7.07;;;20.70;99.90;;;;;;6334762;22;20511;-88
2023/07/09 05:21:03;;;;;;;9.82;6.88;;;20.70;99.90;;;;;;6332728;22;20481;-89
2023/07/09 05:23:28;;;;;;;11.35;7.68;;;20.90;99.90;;;;;;6306082;22;20344;-89
2023/07/09 05:25:59;;;;;;;10.05;6.85;;;20.80;99.90;;;;;;6305266;22;20013;-88
2023/07/09 05:28:25;;;;;;;11.90;7.47;;;20.80;99.90;;;;;;6334405;22;20015;-87
2023/07/09 05:30:51;;;;;;;9.73;7.13;;;20.90;99.90;;;;;;6306806;22;20095;-88
2023/07/09 05:33:18;;;;;;;10.18;7.15;;;21.00;99.90;;;;;;6333806;22;20015;-89
2023/07/09 05:35:44;;;;;;;9.18;6.75;;;21.00;99.90;;;;;;6307537;22;20015;-88
2023/07/09 05:38:10;;;;;;;10.23;7.22;;;21.10;99.90;;;;;;6303930;22;20025;-89
2023/07/09 05:40:36;;;;;;;12.75;7.22;;;21.10;99.90;;;;;;6280599;22;20015;-91
2023/07/09 05:43:02;;;;;;;10.15;7.32;;;21.20;99.90;;;;;;6306698;22;20049;-90
2023/07/09 05:45:28;;;;;;;12.98;7.85;;;21.30;99.90;;;;;;6306835;22;20014;-90
2023/07/09 05:47:53;;;;;;;11.25;7.93;;;21.40;99.90;;;;;;6307564;22;20034;-91
2023/07/09 05:50:19;;;;;;;12.55;8.15;;;21.50;99.90;;;;;;6305365;22;20060;-90
2023/07/09 05:52:45;;;;;;;13.40;7.93;;;21.50;99.90;;;;;;6305973;22;20869;-90
2023/07/09 05:55:11;;;;;;;12.75;8.48;;;21.70;99.90;;;;;;6334668;22;20086;-90
2023/07/09 05:57:38;;;;;;;13.25;8.57;;;21.70;99.90;;;;;;6282792;22;20022;-90
2023/07/09 06:00:04;;;;;;;11.23;7.68;;;21.80;99.90;;;;;;6307277;22;20041;-89
2023/07/09 06:02:30;;;;;;;12.52;8.27;;;21.80;99.90;;;;;;6306414;22;20042;-91
2023/07/09 06:04:58;;;;;;;11.63;7.70;;;21.90;99.90;;;;;;6308103;22;20031;-90
2023/07/09 06:07:24;;;;;;;12.02;7.45;;;21.90;99.90;;;;;;6283103;22;20345;-89
2023/07/09 06:09:49;;;;;;;10.85;7.72;;;22.00;99.90;;;;;;6334966;22;20011;-88
2023/07/09 06:12:15;;;;;;;11.93;7.60;;;22.00;99.90;;;;;;6307400;22;20342;-89
2023/07/09 06:14:41;;;;;;;10.75;7.95;;;22.10;99.90;;;;;;6281456;22;20015;-88
2023/07/09 06:17:07;;;;;;;14.93;7.93;;;22.10;99.90;;;;;;6332465;22;20013;-87
2023/07/09 06:19:32;;;;;;;11.77;8.00;;;22.10;99.90;;;;;;6303898;22;20018;-89
2023/07/09 06:21:58;;;;;;;11.20;7.85;;;22.10;99.90;;;;;;6305232;22;20434;-88
2023/07/09 06:24:24;;;;;;;10.73;8.45;;;22.20;99.90;;;;;;6305355;22;20011;-88
2023/07/09 06:26:50;;;;;;;13.43;8.90;;;22.20;99.90;;;;;;6307216;22;20011;-88
2023/07/09 06:29:16;;;;;;;12.00;8.93;;;22.10;99.90;;;;;;6280273;22;20052;-88
2023/07/09 06:31:42;;;;;;;14.98;8.95;;;22.20;99.90;;;;;;6305842;22;20505;-88
2023/07/09 06:34:09;;;;;;;14.27;8.85;;;22.20;99.90;;;;;;6307621;22;20019;-89
2023/07/09 06:36:36;;;;;;;12.25;8.65;;;22.10;99.90;;;;;;6282416;22;20293;-88
2023/07/09 06:39:02;;;;;;;11.98;8.57;;;22.20;99.90;;;;;;6305768;22;20011;-88
2023/07/09 06:41:28;;;;;;;14.25;9.02;;;22.30;99.90;;;;;;6333849;22;20014;-89
2023/07/09 06:43:53;;;;;;;13.02;8.93;;;22.30;99.90;;;;;;6335081;22;20011;-88
2023/07/09 06:46:20;;;;;;;17.23;9.63;;;22.40;99.90;;;;;;6306606;22;20039;-88
2023/07/09 06:48:47;;;;;;;14.18;9.30;;;22.40;99.90;;;;;;6279081;22;20065;-87
2023/07/09 06:51:12;;;;;;;13.50;9.20;;;22.50;99.90;;;;;;6280798;22;20424;-87
2023/07/09 06:53:39;;;;;;;15.52;9.23;;;22.60;99.90;;;;;;6305962;22;20021;-88
2023/07/09 06:56:05;;;;;;;13.80;9.27;;;22.70;99.90;;;;;;6304760;22;20038;-88
2023/07/09 06:58:33;;;;;;;14.48;9.63;;;22.80;99.90;;;;;;6331872;22;20011;-88
2023/07/09 07:01:03;;;;;;;13.70;8.80;;;22.90;99.90;;;;;;6306089;22;20018;-88
2023/07/09 07:03:29;;;;;;;14.38;8.80;;;23.00;99.90;;;;;;6334150;22;20006;-88
2023/07/09 07:05:56;;;;;;;14.13;9.75;;;23.10;99.90;;;;;;6334665;22;20011;-87
2023/07/09 07:08:23;;;;;;;13.30;8.63;;;23.30;99.90;;;;;;6308783;22;20121;-88
2023/07/09 07:10:50;;;;;;;15.10;8.50;;;23.30;99.90;;;;;;6281593;22;20098;-88
2023/07/09 07:13:16;;;;;;;16.00;8.27;;;23.40;99.90;;;;;;6282125;22;20438;-89
2023/07/09 07:15:48;;;;;;;12.70;8.73;;;23.50;99.90;;;;;;6283232;22;20040;-88
2023/07/09 07:18:13;;;;;;;14.13;9.07;;;23.60;99.90;;;;;;6307274;22;20441;-88
2023/07/09 07:20:39;;;;;;;13.95;8.98;;;23.90;99.90;;;;;;6307819;22;20021;-88
2023/07/09 07:23:05;;;;;;;13.18;9.18;;;24.10;99.90;;;;;;6282362;22;20014;-88
2023/07/09 07:25:32;;;;;;;11.80;8.60;;;24.40;99.90;;;;;;6281864;22;20072;-88
2023/07/09 07:27:58;;;;;;;12.70;9.20;;;24.70;99.90;;;;;;6282270;22;20611;-88
2023/07/09 07:30:24;;;;;;;16.20;8.45;;;25.00;99.90;;;;;;6308811;22;20019;-88
2023/07/09 07:32:49;;;;;;;11.25;7.93;;;25.30;99.90;;;;;;6307510;22;20442;-85
2023/07/09 07:35:19;;;;;;;12.85;8.40;;;25.60;99.90;;;;;;6305799;22;20437;-84
2023/07/09 07:37:45;;;;;;;13.35;8.60;;;25.80;99.90;;;;;;6280971;22;20014;-86
2023/07/09 07:40:11;;;;;;;26.75;9.88;;;25.90;99.90;;;;;;6281453;22;20094;-87
2023/07/09 07:42:37;;;;;;;11.77;8.20;;;26.00;99.90;;;;;;6307086;22;20011;-87
2023/07/09 07:45:03;;;;;;;14.45;8.77;;;26.00;99.90;;;;;;6307891;22;20019;-87
2023/07/09 07:47:30;;;;;;;12.77;8.27;;;26.10;99.90;;;;;;6281077;22;20041;-87
2023/07/09 07:49:56;;;;;;;12.18;7.72;;;26.20;99.90;;;;;;6281648;22;20018;-87
2023/07/09 07:52:23;;;;;;;10.40;7.55;;;26.30;99.90;;;;;;6335107;22;20038;-87
2023/07/09 07:54:49;;;;;;;10.32;7.60;;;26.50;99.90;;;;;;6335635;22;20010;-87
2023/07/09 07:57:15;;;;;;;11.50;7.40;;;26.70;99.90;;;;;;6281884;22;20434;-87
2023/07/09 07:59:40;;;;;;;13.05;7.78;;;26.80;99.90;;;;;;6307762;22;20014;-87
2023/07/09 08:02:11;;;;;;;14.52;7.70;;;27.00;99.90;;;;;;6334657;22;20011;-87
2023/07/09 08:04:37;;;;;;;10.88;7.22;;;27.20;99.90;;;;;;6307875;22;20026;-87
2023/07/09 08:07:02;;;;;;;11.70;8.00;;;27.30;99.90;;;;;;6281265;22;20015;-86
2023/07/09 08:09:29;;;;;;;11.25;7.38;;;27.40;99.90;;;;;;6307394;22;20013;-87
2023/07/09 08:11:55;;;;;;;12.52;7.38;;;27.40;99.90;;;;;;6306751;22;20018;-86
2023/07/09 08:14:20;;;;;;;12.77;8.48;;;27.50;99.90;;;;;;6282483;22;20023;-88
2023/07/09 08:16:47;;;;;;;11.05;7.22;;;27.60;99.90;;;;;;6305297;22;20356;-88
2023/07/09 08:19:13;;;;;;;12.27;7.70;;;27.70;99.90;;;;;;6332988;22;20463;-82
2023/07/09 08:21:39;;;;;;;14.13;7.78;;;27.70;99.90;;;;;;6304254;22;20038;-82
2023/07/09 08:24:05;;;;;;;11.68;7.80;;;27.70;99.80;;;;;;6303377;22;20018;-84
2023/07/09 08:26:31;;;;;;;12.90;7.88;;;27.70;99.70;;;;;;6304222;22;20026;-83
2023/07/09 08:28:57;;;;;;;16.15;7.95;;;27.70;99.70;;;;;;6278809;22;20007;-82
2023/07/09 08:31:22;;;;;;;15.43;7.60;;;27.60;99.60;;;;;;6277280;22;20023;-82
2023/07/09 08:33:48;;;;;;;12.57;7.60;;;27.60;99.80;;;;;;6304868;22;20022;-83
2023/07/09 08:36:14;;;;;;;10.88;7.28;;;27.60;99.80;;;;;;6332032;22;20010;-83
2023/07/09 08:38:40;;;;;;;12.15;7.55;;;27.60;99.90;;;;;;6333041;22;20007;-83
2023/07/09 08:41:49;;;;;;;13.68;7.57;;;27.50;99.90;;;;;;6331686;22;20037;-83
2023/07/09 08:44:37;;;;;;;10.82;7.30;;;27.50;99.80;;;;;;6232681;22;20022;-82
2023/07/09 08:47:11;;;;;;;19.55;7.50;;;27.50;99.90;;;;;;6330824;22;20015;-83
2023/07/09 08:49:42;;;;;;;11.40;6.32;;;27.50;99.90;;;;;;6303675;22;20524;-82
2023/07/09 08:52:23;;;;;;;12.50;7.57;;;27.50;99.90;;;;;;6331170;22;20023;-82
2023/07/09 08:54:50;;;;;;;13.38;6.95;;;27.50;99.90;;;;;;6303798;22;20011;-82
2023/07/09 08:57:25;;;;;;;12.52;7.57;;;27.60;99.90;;;;;;6276881;22;20703;-82
2023/07/09 09:00:02;;;;;;;12.18;6.82;;;27.60;99.90;;;;;;6331327;22;20018;-83
2023/07/09 09:02:52;;;;;;;14.15;7.15;;;27.70;99.90;;;;;;6303311;22;20011;-83
2023/07/09 09:05:20;;;;;;;9.88;7.15;;;27.70;99.80;;;;;;6303097;22;20014;-83
2023/07/09 09:07:54;;;;;;;13.32;6.57;;;27.90;99.70;;;;;;6277720;22;20341;-83
2023/07/09 09:10:38;;;;;;;11.00;6.63;;;28.00;99.40;;;;;;6277757;22;20006;-83
2023/07/09 09:13:13;;;;;;;13.77;7.10;;;28.10;99.60;;;;;;6303305;22;20025;-82
2023/07/09 09:15:42;;;;;;;12.75;7.00;;;28.20;99.00;;;;;;6330694;22;20003;-82
2023/07/09 09:18:28;;;;;;;17.83;7.75;;;28.30;99.30;;;;;;6303932;22;20011;-82
2023/07/09 09:21:04;;;;;;;13.75;7.00;;;28.30;99.30;;;;;;6279175;22;20014;-82
2023/07/09 09:23:48;;;;;;;12.90;6.95;;;28.40;99.60;;;;;;6279823;22;20014;-83
2023/07/09 09:26:21;;;;;;;14.77;6.53;;;28.50;99.40;;;;;;6278172;22;20018;-83
2023/07/09 09:28:47;;;;;;;10.98;7.10;;;28.60;99.10;;;;;;6300413;22;20539;-83
2023/07/09 09:31:14;;;;;;;11.45;7.43;;;28.70;99.00;;;;;;6302041;22;20034;-83
2023/07/09 09:33:45;;;;;;;12.23;7.10;;;28.80;99.00;;;;;;6277052;22;20022;-82
2023/07/09 09:36:19;;;;;;;11.02;7.38;;;28.80;98.80;;;;;;6305475;22;20046;-82
2023/07/09 09:38:45;;;;;;;12.95;6.85;;;28.90;98.50;;;;;;6303052;22;20324;-82
2023/07/09 09:41:37;;;;;;;12.23;6.43;;;29.00;98.70;;;;;;6276832;22;20310;-83
2023/07/09 09:44:05;;;;;;;11.73;6.93;;;29.00;98.50;;;;;;6296127;22;20025;-83
2023/07/09 09:46:32;;;;;;;11.20;7.15;;;29.10;98.80;;;;;;6330856;22;20441;-83
2023/07/09 09:49:03;;;;;;;11.63;6.80;;;29.20;98.50;;;;;;6303790;22;20011;-81
2023/07/09 09:51:29;;;;;;;13.77;6.38;;;29.20;98.10;;;;;;6277517;22;20019;-81
2023/07/09 09:54:00;;;;;;;10.32;6.15;;;29.30;98.00;;;;;;6330144;22;20042;-85
2023/07/09 09:56:34;;;;;;;12.15;6.28;;;29.40;97.20;;;;;;6279081;22;20046;-85
2023/07/09 09:59:00;;;;;;;10.40;6.90;;;29.40;97.20;;;;;;6302449;22;20075;-88
2023/07/09 10:01:32;;;;;;;11.55;6.47;;;29.50;97.30;;;;;;6305739;22;20090;-88
2023/07/09 10:04:02;;;;;;;10.35;7.13;;;29.60;97.50;;;;;;6335511;22;20011;-86
2023/07/09 10:06:39;;;;;;;15.77;6.82;;;29.70;97.40;;;;;;6332521;22;20341;-86
2023/07/09 10:09:29;;;;;;;11.35;7.18;;;29.80;97.10;;;;;;6304697;22;20007;-84
2023/07/09 10:11:59;;;;;;;9.10;6.70;;;29.90;97.70;;;;;;6332604;22;20034;-83
2023/07/09 10:14:45;;;;;;;13.23;7.35;;;29.90;97.90;;;;;;6279098;22;20115;-83
2023/07/09 10:17:36;;;;;;;15.77;6.97;;;30.00;97.30;;;;;;6333130;22;20094;-83
2023/07/09 10:20:16;;;;;;;9.55;6.57;;;30.10;97.60;;;;;;6304443;22;20041;-83
2023/07/09 10:23:10;;;;;;;12.80;6.85;;;30.10;97.40;;;;;;6276674;22;20022;-83
2023/07/09 10:26:09;;;;;;;16.75;8.02;;;30.20;97.30;;;;;;6272420;22;20015;-83
2023/07/09 10:28:38;;;;;;;11.70;7.72;;;30.20;97.60;;;;;;6331844;22;20456;-82
2023/07/09 10:31:13;;;;;;;12.82;7.70;;;30.30;97.80;;;;;;6304168;22;20381;-84
2023/07/09 10:33:47;;;;;;;14.27;7.85;;;30.30;97.60;;;;;;6278250;22;20029;-81
2023/07/09 10:36:40;;;;;;;13.10;7.65;;;30.40;97.30;;;;;;6333704;22;20022;-84
2023/07/09 10:39:12;;;;;;;12.68;7.90;;;30.40;97.60;;;;;;6302492;22;20022;-87
2023/07/09 10:41:39;;;;;;;10.75;7.28;;;30.40;97.30;;;;;;6281275;22;20056;-85
2023/07/09 10:44:22;;;;;;;12.82;7.18;;;30.50;97.10;;;;;;6307679;22;20405;-84
2023/07/09 10:46:53;;;;;;;17.77;7.75;;;30.60;97.00;;;;;;6308399;22;20111;-84
2023/07/09 10:49:20;;;;;;;11.15;6.93;;;30.60;97.40;;;;;;6307739;22;20017;-85
2023/07/09 10:51:55;;;;;;;13.30;7.80;;;30.70;97.40;;;;;;6335089;22;20015;-85
2023/07/09 10:54:49;;;;;;;13.82;7.68;;;30.70;97.00;;;;;;6281632;22;20014;-85
2023/07/09 10:57:25;;;;;;;14.50;7.35;;;30.80;97.00;;;;;;6306367;22;20084;-85
2023/07/09 10:59:51;;;;;;;11.23;7.32;;;30.90;97.00;;;;;;6308176;22;20114;-85
2023/07/09 11:02:30;;;;;;;13.52;7.57;;;30.90;96.80;;;;;;6306894;22;20122;-84
2023/07/09 11:04:58;;;;;;;12.23;7.60;;;31.00;96.10;;;;;;6307478;22;20453;-84
2023/07/09 11:07:30;;;;;;;13.77;7.35;;;31.00;96.20;;;;;;6308115;22;20011;-84
2023/07/09 11:09:58;;;;;;;10.05;7.18;;;31.10;96.00;;;;;;6307200;22;20015;-85
2023/07/09 11:12:36;;;;;;;14.13;6.90;;;31.20;96.60;;;;;;6307563;22;20022;-85
2023/07/09 11:15:05;;;;;;;11.65;6.18;;;31.30;96.50;;;;;;6306821;22;20015;-85
2023/07/09 11:17:33;;;;;;;12.05;6.93;;;31.30;95.90;;;;;;6281195;22;20558;-85
2023/07/09 11:20:00;;;;;;;11.85;6.72;;;31.40;95.80;;;;;;6307513;22;20450;-84
2023/07/09 11:22:41;;;;;;;17.30;7.28;;;31.40;95.90;;;;;;6281698;22;20015;-85
2023/07/09 11:25:11;;;;;;;12.43;7.10;;;31.50;96.00;;;;;;6281053;22;20019;-84
2023/07/09 11:27:52;;;;;;;9.45;6.60;;;31.60;96.20;;;;;;6307204;22;20074;-85
2023/07/09 11:30:26;;;;;;;10.05;6.93;;;31.60;96.10;;;;;;6308052;22;20007;-85
2023/07/09 11:33:02;;;;;;;10.23;6.30;;;31.70;96.00;;;;;;6281025;22;20011;-85
2023/07/09 11:35:44;;;;;;;10.23;6.38;;;31.70;95.70;;;;;;6281630;22;20090;-84
2023/07/09 11:38:19;;;;;;;13.80;6.80;;;31.80;96.00;;;;;;6334049;22;20433;-84
2023/07/09 11:40:55;;;;;;;10.15;6.68;;;31.80;96.20;;;;;;6280023;22;20014;-84
2023/07/09 11:43:35;;;;;;;11.00;7.53;;;31.80;95.20;;;;;;6280772;22;20543;-84
2023/07/09 11:46:13;;;;;;;12.35;6.63;;;31.90;96.20;;;;;;6306383;22;20066;-84
2023/07/09 11:48:40;;;;;;;12.30;6.25;;;32.00;95.70;;;;;;6281321;22;20467;-84
2023/07/09 11:51:23;;;;;;;10.60;6.65;;;32.00;95.40;;;;;;6306148;22;20034;-84
2023/07/09 11:53:52;;;;;;;11.05;6.25;;;32.10;95.70;;;;;;6306516;22;20007;-84
2023/07/09 11:56:20;;;;;;;10.75;5.95;;;32.10;95.50;;;;;;6281099;22;20469;-84
2023/07/09 11:58:57;;;;;;;8.45;5.82;;;32.20;95.80;;;;;;6306577;22;20015;-85
2023/07/09 12:01:34;;;;;;;10.23;6.63;;;32.20;95.30;;;;;;6306763;22;20437;-85
2023/07/09 12:04:00;;;;;;;9.13;5.80;;;32.30;95.30;;;;;;6307009;22;20015;-84
2023/07/09 12:06:31;;;;;;;10.93;5.55;;;32.40;94.90;;;;;;6281144;22;20376;-84
2023/07/09 12:08:57;;;;;;;8.50;5.90;;;32.40;94.80;;;;;;6306212;22;20018;-84
2023/07/09 12:11:28;;;;;;;8.45;6.32;;;32.50;94.70;;;;;;6306810;22;20015;-84
2023/07/09 12:14:00;;;;;;;9.57;5.53;;;32.50;94.60;;;;;;6280882;22;20507;-84
2023/07/09 12:16:29;;;;;;;9.05;5.50;;;32.50;95.30;;;;;;6281328;22;20018;-84
2023/07/09 12:18:55;;;;;;;8.85;5.90;;;32.60;95.10;;;;;;6305672;22;20019;-84
2023/07/09 12:21:23;;;;;;;9.57;5.95;;;32.70;95.20;;;;;;6281471;22;20338;-84
2023/07/09 12:23:49;;;;;;;8.15;6.05;;;32.80;95.80;;;;;;6334406;22;20003;-84
2023/07/09 12:26:17;;;;;;;9.57;6.38;;;32.90;94.80;;;;;;6306080;22;20017;-84
2023/07/09 12:28:48;;;;;;;9.80;6.07;;;33.00;95.10;;;;;;6280865;22;20746;-84
2023/07/09 12:31:16;;;;;;;11.48;5.95;;;33.00;94.90;;;;;;6278651;22;20010;-85
2023/07/09 12:33:49;;;;;;;9.23;5.75;;;33.10;95.20;;;;;;6278507;22;20015;-84
2023/07/09 12:36:17;;;;;;;12.48;6.28;;;33.10;94.90;;;;;;6278290;22;20030;-84
2023/07/09 12:38:46;;;;;;;11.13;6.32;;;33.10;95.00;;;;;;6304349;22;20015;-84
2023/07/09 12:41:25;;;;;;;9.27;6.05;;;33.20;94.70;;;;;;6332040;22;20014;-84
2023/07/09 12:43:56;;;;;;;9.52;5.43;;;33.20;95.00;;;;;;6279609;22;20388;-84
2023/07/09 12:46:23;;;;;;;9.63;5.50;;;33.30;94.20;;;;;;6305188;22;20644;-84
2023/07/09 12:48:52;;;;;;;8.18;5.60;;;33.20;94.60;;;;;;6305280;22;20021;-84
2023/07/09 12:51:29;;;;;;;9.02;6.18;;;33.30;94.50;;;;;;6278702;22;20021;-84